This is the latest recevied weather packets stored in our database for station/object SM0PQB-13. If no packets are shown the sender has not sent any weather packets the latest 10 day(s).
| Time | Temp. | Humidity | Pressure | Rain* | Wind** | Luminosity | Snow |
|---|---|---|---|---|---|---|---|
| 1778001552 | 23.89° C | 32% | 1005.8 hPa | - | - | - | - |
| 1778000952 | 23.89° C | 32% | 1005.7 hPa | - | - | - | - |
| 1778000352 | 23.89° C | 31% | 1005.7 hPa | - | - | - | - |
| 1777999754 | 24.44° C | 31% | 1005.6 hPa | - | - | - | - |
| 1777999152 | 24.44° C | 32% | 1005.6 hPa | - | - | - | - |
| 1777998552 | 24.44° C | 31% | 1005.5 hPa | - | - | - | - |
| 1777997952 | 24.44° C | 32% | 1005.5 hPa | - | - | - | - |
| 1777997351 | 24.44° C | 31% | 1005.6 hPa | - | - | - | - |
| 1777996753 | 25° C | 31% | 1005.5 hPa | - | - | - | - |
| 1777996152 | 25° C | 31% | 1005.5 hPa | - | - | - | - |
| 1777995553 | 25° C | 31% | 1005.4 hPa | - | - | - | - |
| 1777994953 | 25° C | 31% | 1005.3 hPa | - | - | - | - |
| 1777994353 | 25.56° C | 31% | 1005.4 hPa | - | - | - | - |
| 1777993752 | 25.56° C | 31% | 1005.2 hPa | - | - | - | - |
| 1777993154 | 25.56° C | 31% | 1005.3 hPa | - | - | - | - |
| 1777992552 | 25.56° C | 30% | 1005.2 hPa | - | - | - | - |
| 1777991952 | 24.44° C | 31% | 1003.6 hPa | - | - | - | - |
| 1777991352 | 25.56° C | 31% | 1005.1 hPa | - | - | - | - |
| 1777990752 | 26.11° C | 30% | 1005.2 hPa | - | - | - | - |
| 1777989551 | 26.11° C | 30% | 1004.9 hPa | - | - | - | - |
| 1777989492 | 26.67° C | 30% | 1005 hPa | - | - | - | - |
| 1777989431 | 26.67° C | 30% | 1005 hPa | - | - | - | - |
| 1777989371 | 26.11° C | 30% | 1005 hPa | - | - | - | - |
| 1777989311 | 26.67° C | 30% | 1005.1 hPa | - | - | - | - |
| 1777989252 | 26.67° C | 29% | 1005.1 hPa | - | - | - | - |
* Rain since midnight (hover to see other rain measurements)
** Current wind speed in m/s (hover to see current wind gust speed)